Time,TemperatureF,DewpointF,PressureIn,WindDirection,WindDirectionDegrees,WindSpeedMPH,WindSpeedGustMPH,Humidity,HourlyPrecipIn,Conditions,Clouds,dailyrainin,SolarRadiationWatts/m^2,SoftwareType,DateUTC
2013-12-19 00:11:00,41.8,12.0,30.28,West,271,3.0,-999.0,30,-99.99,,,0.00,0,weatherlink.com 1.10,2013-12-19 05:11:00,
2013-12-19 00:26:00,43.2,12.0,30.28,West,275,5.0,-999.0,28,-99.99,,,0.00,0,weatherlink.com 1.10,2013-12-19 05:26:00,
2013-12-19 00:41:00,44.2,13.0,30.25,West,264,7.0,-999.0,28,-99.99,,,0.00,0,weatherlink.com 1.10,2013-12-19 05:41:00,
2013-12-19 00:56:00,44.5,14.0,30.24,West,259,4.0,-999.0,29,-99.99,,,0.00,0,weatherlink.com 1.10,2013-12-19 05:56:00,
2013-12-19 01:11:00,44.5,14.0,30.24,West,268,3.0,-999.0,29,-99.99,,,0.00,0,weatherlink.com 1.10,2013-12-19 06:11:00,
2013-12-19 01:26:00,44.1,12.0,30.25,West,269,5.0,-999.0,27,-99.99,,,0.00,0,weatherlink.com 1.10,2013-12-19 06:26:00,
2013-12-19 01:41:00,43.9,12.0,30.24,WSW,252,3.0,-999.0,27,-99.99,,,0.00,0,weatherlink.com 1.10,2013-12-19 06:41:00,
2013-12-19 01:56:00,43.9,15.0,30.24,West,259,3.0,-999.0,31,-99.99,,,0.00,0,weatherlink.com 1.10,2013-12-19 06:56:00,
2013-12-19 02:11:00,44.9,19.0,30.24,West,264,5.0,-999.0,36,-99.99,,,0.00,0,weatherlink.com 1.10,2013-12-19 07:11:00,
2013-12-19 02:26:00,45.6,19.0,30.24,West,261,4.0,-999.0,34,-99.99,,,0.00,0,weatherlink.com 1.10,2013-12-19 07:26:00,
2013-12-19 02:41:00,46.4,19.0,30.24,West,263,10.0,-999.0,34,-99.99,,,0.00,0,weatherlink.com 1.10,2013-12-19 07:41:00,
2013-12-19 02:56:00,46.6,20.0,30.24,WNW,283,10.0,-999.0,35,-99.99,,,0.00,0,weatherlink.com 1.10,2013-12-19 07:56:00,
2013-12-19 03:11:00,46.8,20.0,30.25,West,266,6.0,-999.0,34,-99.99,,,0.00,0,weatherlink.com 1.10,2013-12-19 08:11:00,
2013-12-19 03:26:00,46.5,19.0,30.25,WSW,244,5.0,-999.0,34,-99.99,,,0.00,0,weatherlink.com 1.10,2013-12-19 08:26:00,
2013-12-19 03:41:00,46.6,19.0,30.26,West,269,7.0,-999.0,34,-99.99,,,0.00,0,weatherlink.com 1.10,2013-12-19 08:41:00,
2013-12-19 03:56:00,46.5,19.0,30.26,WSW,237,3.0,-999.0,33,-99.99,,,0.00,0,weatherlink.com 1.10,2013-12-19 08:56:00,
2013-12-19 04:11:00,46.1,19.0,30.26,West,267,9.0,-999.0,34,-99.99,,,0.00,0,weatherlink.com 1.10,2013-12-19 09:11:00,
2013-12-19 04:26:00,45.7,19.0,30.26,WSW,251,4.0,-999.0,35,-99.99,,,0.00,0,weatherlink.com 1.10,2013-12-19 09:26:00,
2013-12-19 04:41:00,45.2,16.0,30.26,West,268,4.0,-999.0,31,-99.99,,,0.00,0,weatherlink.com 1.10,2013-12-19 09:41:00,
2013-12-19 04:56:00,44.0,15.0,30.27,West,260,11.0,-999.0,31,-99.99,,,0.00,0,weatherlink.com 1.10,2013-12-19 09:56:00,
2013-12-19 05:11:00,43.1,16.0,30.27,West,265,3.0,-999.0,34,-99.99,,,0.00,0,weatherlink.com 1.10,2013-12-19 10:11:00,
2013-12-19 05:26:00,43.3,16.0,30.27,West,265,3.0,-999.0,33,-99.99,,,0.00,0,weatherlink.com 1.10,2013-12-19 10:26:00,
2013-12-19 05:41:00,43.3,17.0,30.28,WSW,254,4.0,-999.0,34,-99.99,,,0.00,0,weatherlink.com 1.10,2013-12-19 10:41:00,
2013-12-19 05:56:00,44.5,20.0,30.28,West,262,6.0,-999.0,38,-99.99,,,0.00,0,weatherlink.com 1.10,2013-12-19 10:56:00,
2013-12-19 06:12:00,45.9,20.0,30.28,West,265,3.0,-999.0,35,-99.99,,,0.00,0,weatherlink.com 1.10,2013-12-19 11:12:00,
2013-12-19 06:26:00,46.2,20.0,30.28,West,264,6.0,-999.0,35,-99.99,,,0.00,0,weatherlink.com 1.10,2013-12-19 11:26:00,
2013-12-19 06:41:00,46.2,20.0,30.28,West,273,5.0,-999.0,35,-99.99,,,0.00,0,weatherlink.com 1.10,2013-12-19 11:41:00,
2013-12-19 06:56:00,45.7,19.0,30.28,West,260,1.0,-999.0,35,-99.99,,,0.00,0,weatherlink.com 1.10,2013-12-19 11:56:00,
2013-12-19 07:11:00,45.0,17.0,30.29,West,273,3.0,-999.0,32,-99.99,,,0.00,0,weatherlink.com 1.10,2013-12-19 12:11:00,
2013-12-19 07:26:00,44.4,15.0,30.29,West,278,5.0,-999.0,31,-99.99,,,0.00,0,weatherlink.com 1.10,2013-12-19 12:26:00,
2013-12-19 07:41:00,44.2,15.0,30.30,West,275,7.0,-999.0,31,-99.99,,,0.00,19,weatherlink.com 1.10,2013-12-19 12:41:00,
2013-12-19 07:56:00,44.5,15.0,30.30,WSW,246,9.0,-999.0,31,-99.99,,,0.00,44,weatherlink.com 1.10,2013-12-19 12:56:00,
2013-12-19 08:11:00,44.7,16.0,30.30,West,271,5.0,-999.0,31,-99.99,,,0.00,90,weatherlink.com 1.10,2013-12-19 13:11:00,
2013-12-19 08:26:00,44.9,16.0,30.30,West,270,4.0,-999.0,31,-99.99,,,0.00,139,weatherlink.com 1.10,2013-12-19 13:26:00,
2013-12-19 08:41:00,45.5,16.0,30.30,WSW,255,7.0,-999.0,31,-99.99,,,0.00,178,weatherlink.com 1.10,2013-12-19 13:41:00,
2013-12-19 08:56:00,45.9,16.0,30.30,West,281,4.0,-999.0,30,-99.99,,,0.00,221,weatherlink.com 1.10,2013-12-19 13:56:00,
2013-12-19 09:11:00,46.5,16.0,30.30,WSW,254,11.0,-999.0,29,-99.99,,,0.00,248,weatherlink.com 1.10,2013-12-19 14:11:00,
2013-12-19 09:26:00,46.7,17.0,30.30,WSW,249,9.0,-999.0,30,-99.99,,,0.00,236,weatherlink.com 1.10,2013-12-19 14:26:00,
2013-12-19 09:41:00,47.7,18.0,30.30,West,279,4.0,-999.0,30,-99.99,,,0.00,320,weatherlink.com 1.10,2013-12-19 14:41:00,
2013-12-19 09:56:00,48.9,19.0,30.31,SW,234,13.0,-999.0,30,-99.99,,,0.00,346,weatherlink.com 1.10,2013-12-19 14:56:00,
2013-12-19 10:11:00,50.7,21.0,30.30,West,281,4.0,-999.0,31,-99.99,,,0.00,369,weatherlink.com 1.10,2013-12-19 15:11:00,
2013-12-19 10:26:00,50.8,22.0,30.31,WSW,252,14.0,-999.0,32,-99.99,,,0.00,401,weatherlink.com 1.10,2013-12-19 15:26:00,
2013-12-19 10:41:00,52.1,22.0,30.30,WSW,240,10.0,-999.0,31,-99.99,,,0.00,417,weatherlink.com 1.10,2013-12-19 15:41:00,
2013-12-19 10:56:00,53.7,23.0,30.30,WSW,255,10.0,-999.0,30,-99.99,,,0.00,446,weatherlink.com 1.10,2013-12-19 15:56:00,
2013-12-19 11:12:00,54.0,23.0,30.30,WSW,245,5.0,-999.0,30,-99.99,,,0.00,468,weatherlink.com 1.10,2013-12-19 16:12:00,
2013-12-19 11:27:00,53.8,23.0,30.29,West,277,6.0,-999.0,30,-99.99,,,0.00,480,weatherlink.com 1.10,2013-12-19 16:27:00,
2013-12-19 11:42:00,54.1,23.0,30.28,WSW,250,12.0,-999.0,30,-99.99,,,0.00,353,weatherlink.com 1.10,2013-12-19 16:42:00,
2013-12-19 11:57:00,53.1,23.0,30.27,WSW,249,5.0,-999.0,31,-99.99,,,0.00,371,weatherlink.com 1.10,2013-12-19 16:57:00,
2013-12-19 12:12:00,52.7,23.0,30.27,WSW,238,9.0,-999.0,32,-99.99,,,0.00,306,weatherlink.com 1.10,2013-12-19 17:12:00,
2013-12-19 12:27:00,52.7,23.0,30.26,SW,222,6.0,-999.0,32,-99.99,,,0.00,313,weatherlink.com 1.10,2013-12-19 17:27:00,
2013-12-19 12:42:00,52.4,24.0,30.25,WSW,238,5.0,-999.0,33,-99.99,,,0.00,223,weatherlink.com 1.10,2013-12-19 17:42:00,
2013-12-19 12:57:00,52.3,24.0,30.24,WSW,237,12.0,-999.0,33,-99.99,,,0.00,350,weatherlink.com 1.10,2013-12-19 17:57:00,
2013-12-19 13:12:00,52.9,25.0,30.23,WSW,241,6.0,-999.0,34,-99.99,,,0.00,236,weatherlink.com 1.10,2013-12-19 18:12:00,
2013-12-19 13:42:00,52.2,24.0,30.22,WSW,243,7.0,-999.0,34,-99.99,,,0.00,167,weatherlink.com 1.10,2013-12-19 18:42:00,
2013-12-19 13:57:00,52.1,24.0,30.21,WSW,244,9.0,-999.0,34,-99.99,,,0.00,169,weatherlink.com 1.10,2013-12-19 18:57:00,
2013-12-19 14:12:00,51.9,24.0,30.21,WSW,246,8.0,-999.0,34,-99.99,,,0.00,185,weatherlink.com 1.10,2013-12-19 19:12:00,
2013-12-19 14:27:00,51.8,25.0,30.20,WSW,240,9.0,-999.0,35,-99.99,,,0.00,179,weatherlink.com 1.10,2013-12-19 19:27:00,
2013-12-19 14:42:00,52.6,25.0,30.20,WSW,244,7.0,-999.0,35,-99.99,,,0.00,360,weatherlink.com 1.10,2013-12-19 19:42:00,
2013-12-19 14:57:00,53.1,26.0,30.19,West,271,6.0,-999.0,35,-99.99,,,0.00,169,weatherlink.com 1.10,2013-12-19 19:57:00,
2013-12-19 15:12:00,52.1,26.0,30.20,WSW,257,9.0,-999.0,36,-99.99,,,0.00,116,weatherlink.com 1.10,2013-12-19 20:12:00,
2013-12-19 15:27:00,51.3,27.0,30.20,WSW,246,4.0,-999.0,39,-99.99,,,0.00,100,weatherlink.com 1.10,2013-12-19 20:27:00,
2013-12-19 15:42:00,51.0,25.0,30.20,SW,228,8.0,-999.0,37,-99.99,,,0.00,83,weatherlink.com 1.10,2013-12-19 20:42:00,
2013-12-19 15:57:00,50.6,26.0,30.21,West,265,3.0,-999.0,38,-99.99,,,0.00,65,weatherlink.com 1.10,2013-12-19 20:57:00,
2013-12-19 16:12:00,50.2,25.0,30.21,SW,218,6.0,-999.0,37,-99.99,,,0.00,47,weatherlink.com 1.10,2013-12-19 21:12:00,
2013-12-19 16:27:00,49.9,25.0,30.21,SW,236,3.0,-999.0,38,-99.99,,,0.00,40,weatherlink.com 1.10,2013-12-19 21:27:00,
2013-12-19 16:42:00,49.4,24.0,30.23,SW,227,6.0,-999.0,37,-99.99,,,0.00,30,weatherlink.com 1.10,2013-12-19 21:42:00,
2013-12-19 16:57:00,48.9,23.0,30.23,WSW,238,5.0,-999.0,36,-99.99,,,0.00,21,weatherlink.com 1.10,2013-12-19 21:57:00,
2013-12-19 17:12:00,48.6,23.0,30.23,SW,229,3.0,-999.0,37,-99.99,,,0.00,11,weatherlink.com 1.10,2013-12-19 22:12:00,
2013-12-19 17:27:00,48.2,23.0,30.24,WSW,256,5.0,-999.0,38,-99.99,,,0.00,0,weatherlink.com 1.10,2013-12-19 22:27:00,
2013-12-19 17:42:00,47.6,23.0,30.23,WSW,256,8.0,-999.0,38,-99.99,,,0.00,0,weatherlink.com 1.10,2013-12-19 22:42:00,
2013-12-19 17:57:00,47.2,23.0,30.23,West,277,7.0,-999.0,39,-99.99,,,0.00,0,weatherlink.com 1.10,2013-12-19 22:57:00,
2013-12-19 18:12:00,47.1,24.0,30.24,WSW,257,3.0,-999.0,40,-99.99,,,0.00,0,weatherlink.com 1.10,2013-12-19 23:12:00,
2013-12-19 18:27:00,47.0,23.0,30.23,WSW,254,7.0,-999.0,39,-99.99,,,0.00,0,weatherlink.com 1.10,2013-12-19 23:27:00,
2013-12-19 18:42:00,47.2,23.0,30.24,WSW,242,6.0,-999.0,38,-99.99,,,0.00,0,weatherlink.com 1.10,2013-12-19 23:42:00,
2013-12-19 18:57:00,47.4,23.0,30.23,WSW,240,6.0,-999.0,39,-99.99,,,0.00,0,weatherlink.com 1.10,2013-12-19 23:57:00,
2013-12-19 19:12:00,47.4,24.0,30.23,WSW,249,7.0,-999.0,40,-99.99,,,0.00,0,weatherlink.com 1.10,2013-12-20 00:12:00,
2013-12-19 19:27:00,47.3,24.0,30.24,West,264,6.0,-999.0,40,-99.99,,,0.00,0,weatherlink.com 1.10,2013-12-20 00:27:00,
2013-12-19 19:42:00,47.0,24.0,30.23,West,261,6.0,-999.0,41,-99.99,,,0.00,0,weatherlink.com 1.10,2013-12-20 00:42:00,
2013-12-19 19:57:00,46.7,24.0,30.23,WSW,244,7.0,-999.0,41,-99.99,,,0.00,0,weatherlink.com 1.10,2013-12-20 00:57:00,
2013-12-19 20:12:00,46.2,24.0,30.23,WSW,245,6.0,-999.0,42,-99.99,,,0.00,0,weatherlink.com 1.10,2013-12-20 01:12:00,
2013-12-19 20:27:00,45.8,24.0,30.23,SSW,200,4.0,-999.0,43,-99.99,,,0.00,0,weatherlink.com 1.10,2013-12-20 01:27:00,
2013-12-19 20:42:00,45.5,25.0,30.22,SW,224,4.0,-999.0,44,-99.99,,,0.00,0,weatherlink.com 1.10,2013-12-20 01:42:00,
2013-12-19 20:57:00,45.1,24.0,30.23,SW,224,10.0,-999.0,44,-99.99,,,0.00,0,weatherlink.com 1.10,2013-12-20 01:57:00,
2013-12-19 21:12:00,44.8,25.0,30.23,WSW,242,7.0,-999.0,46,-99.99,,,0.00,0,weatherlink.com 1.10,2013-12-20 02:12:00,
2013-12-19 21:27:00,44.5,25.0,30.23,SW,232,7.0,-999.0,47,-99.99,,,0.00,0,weatherlink.com 1.10,2013-12-20 02:27:00,
2013-12-19 21:42:00,44.2,25.0,30.22,WSW,243,3.0,-999.0,48,-99.99,,,0.00,0,weatherlink.com 1.10,2013-12-20 02:42:00,
2013-12-19 21:57:00,44.2,26.0,30.23,WNW,291,9.0,-999.0,49,-99.99,,,0.00,0,weatherlink.com 1.10,2013-12-20 02:57:00,
2013-12-19 22:12:00,44.2,26.0,30.22,WSW,243,12.0,-999.0,50,-99.99,,,0.00,0,weatherlink.com 1.10,2013-12-20 03:12:00,
2013-12-19 22:27:00,44.5,27.0,30.22,West,265,7.0,-999.0,50,-99.99,,,0.00,0,weatherlink.com 1.10,2013-12-20 03:27:00,
2013-12-19 22:42:00,44.5,27.0,30.21,West,261,6.0,-999.0,51,-99.99,,,0.00,0,weatherlink.com 1.10,2013-12-20 03:42:00,
2013-12-19 22:57:00,44.4,27.0,30.21,West,269,4.0,-999.0,50,-99.99,,,0.00,0,weatherlink.com 1.10,2013-12-20 03:57:00,
2013-12-19 23:12:00,44.5,27.0,30.21,West,267,14.0,-999.0,50,-99.99,,,0.00,0,weatherlink.com 1.10,2013-12-20 04:12:00,
2013-12-19 23:27:00,44.5,27.0,30.20,SW,232,10.0,-999.0,50,-99.99,,,0.00,0,weatherlink.com 1.10,2013-12-20 04:27:00,
2013-12-19 23:42:00,44.3,27.0,30.20,West,265,11.0,-999.0,50,-99.99,,,0.00,0,weatherlink.com 1.10,2013-12-20 04:42:00,
2013-12-19 23:57:00,44.2,26.0,30.20,West,279,7.0,-999.0,50,-99.99,,,0.00,0,weatherlink.com 1.10,2013-12-20 04:57:00,